Time;durP1;ratioP1;P1;durP2;ratioP2;P2;SDS_P1;SDS_P2;PMS_P1;PMS_P2;Temp;Humidity;BMP_temperature;BMP_pressure;BME280_temperature;BME280_humidity;BME280_pressure;Samples;Min_cycle;Max_cycle;Signal;HPM_P1;HPM_P2
2022/09/09 00:00:20;;;;;;;9.10;5.00;;;;;;;13.89;67.78;99819.19;130004;1271;108661;-77
2022/09/09 00:03:56;;;;;;;9.60;6.00;;;;;;;13.91;67.95;99819.10;130020;1271;110523;-77
2022/09/09 00:07:17;;;;;;;9.60;6.10;;;;;;;13.94;68.02;99818.77;130089;1271;108664;-77
2022/09/09 00:10:28;;;;;;;8.40;5.90;;;;;;;13.93;68.34;99821.73;130113;1271;108685;-77
2022/09/09 00:13:40;;;;;;;9.70;6.10;;;;;;;13.94;68.11;99825.48;130098;1271;108547;-77
2022/09/09 00:16:50;;;;;;;11.40;6.00;;;;;;;13.92;68.52;99830.48;130148;1271;108626;-77
2022/09/09 00:20:02;;;;;;;7.60;5.30;;;;;;;13.89;68.63;99823.64;128679;1271;1957607;-77
2022/09/09 00:23:15;;;;;;;9.20;5.70;;;;;;;13.88;68.74;99816.58;130119;1271;109323;-80
2022/09/09 00:26:30;;;;;;;8.60;5.90;;;;;;;13.92;68.73;99815.44;130121;1271;108663;-79
2022/09/09 00:29:43;;;;;;;9.00;5.70;;;;;;;13.94;68.97;99811.05;130040;1271;109156;-78
2022/09/09 00:32:50;;;;;;;9.60;5.60;;;;;;;13.93;69.05;99813.55;130091;1271;108782;-77
2022/09/09 00:35:59;;;;;;;8.50;6.40;;;;;;;13.92;69.18;99811.06;130114;1273;108710;-77
2022/09/09 00:39:06;;;;;;;8.90;6.20;;;;;;;13.90;69.10;99813.35;130146;1273;108711;-77
2022/09/09 00:42:18;;;;;;;9.80;5.60;;;;;;;13.86;69.47;99813.66;130085;1273;108730;-77
2022/09/09 00:45:43;;;;;;;7.50;5.10;;;;;;;13.81;69.53;99821.10;130041;1273;108864;-76
2022/09/09 00:48:58;;;;;;;9.50;5.80;;;;;;;13.82;69.71;99826.27;130083;1273;108682;-78
2022/09/09 00:52:18;;;;;;;9.50;6.20;;;;;;;13.84;69.81;99825.52;130102;1273;108759;-78
2022/09/09 00:55:34;;;;;;;10.50;6.50;;;;;;;13.84;69.87;99827.80;130084;1273;107806;-78
2022/09/09 00:58:39;;;;;;;9.30;6.90;;;;;;;13.86;69.75;99820.43;129844;1273;108556;-78
2022/09/09 01:01:45;;;;;;;10.10;6.30;;;;;;;13.87;69.79;99815.78;130037;1273;108501;-77
2022/09/09 01:04:50;;;;;;;8.60;6.00;;;;;;;13.86;69.91;99811.89;130074;1273;108883;-78
2022/09/09 01:07:59;;;;;;;10.00;6.10;;;;;;;13.84;70.15;99818.71;130041;1273;108718;-76
2022/09/09 01:11:04;;;;;;;11.90;6.80;;;;;;;13.86;70.14;99821.75;130049;1272;108950;-77
2022/09/09 01:14:21;;;;;;;8.10;5.70;;;;;;;13.87;70.41;99824.28;130095;1273;108842;-77
2022/09/09 01:17:32;;;;;;;11.00;6.20;;;;;;;13.88;70.53;99827.47;130101;1273;108671;-76
2022/09/09 01:20:55;;;;;;;10.00;6.50;;;;;;;13.89;70.43;99827.70;130093;1273;108760;-79
2022/09/09 01:24:15;;;;;;;12.70;6.90;;;;;;;13.87;70.57;99829.82;130128;1273;108771;-77
2022/09/09 01:27:33;;;;;;;;;;;;;;;13.85;70.82;99833.57;130040;1273;108772;-77
2022/09/09 01:30:41;;;;;;;7.50;5.70;;;;;;;13.84;70.92;99832.45;130084;1273;108999;-77
2022/09/09 01:33:50;;;;;;;10.20;6.80;;;;;;;13.86;71.02;99827.81;130134;1273;109017;-77
2022/09/09 01:37:02;;;;;;;10.50;6.30;;;;;;;13.88;70.98;99828.42;130164;1271;108950;-77
2022/09/09 01:40:07;;;;;;;;;;;;;;;13.91;71.06;99826.41;130089;1271;108908;-77
2022/09/09 01:43:14;;;;;;;8.60;6.30;;;;;;;13.92;71.33;99823.08;129952;1271;108883;-76
2022/09/09 01:46:22;;;;;;;10.20;6.70;;;;;;;13.90;71.37;99827.05;130068;1271;109693;-77
2022/09/09 01:49:28;;;;;;;10.40;7.30;;;;;;;13.89;71.45;99825.30;130132;1271;108667;-77
2022/09/09 01:52:37;;;;;;;11.70;7.10;;;;;;;13.86;71.47;99827.91;130053;1271;108856;-76
2022/09/09 01:55:52;;;;;;;9.50;6.30;;;;;;;13.85;71.81;99825.98;129923;1271;106875;-76
2022/09/09 01:59:11;;;;;;;10.20;6.60;;;;;;;13.86;71.66;99823.48;130135;1271;109089;-78
2022/09/09 02:02:20;;;;;;;10.00;6.80;;;;;;;13.89;71.90;99817.51;129947;1271;108890;-79
2022/09/09 02:05:39;;;;;;;11.40;7.20;;;;;;;13.92;71.96;99815.94;130110;1271;108880;-79
2022/09/09 02:08:54;;;;;;;10.50;7.20;;;;;;;13.94;72.07;99811.80;130113;1271;108740;-80
2022/09/09 02:12:07;;;;;;;13.30;7.40;;;;;;;13.92;72.21;99816.56;130055;1271;108698;-77
2022/09/09 02:15:24;;;;;;;8.80;6.50;;;;;;;13.89;72.14;99820.43;130025;1271;108946;-78
2022/09/09 02:18:35;;;;;;;11.70;6.90;;;;;;;13.88;72.44;99822.02;130102;1271;108768;-78
2022/09/09 02:21:43;;;;;;;10.40;6.90;;;;;;;13.89;72.42;99822.98;130100;1271;108419;-77
2022/09/09 02:24:52;;;;;;;10.50;7.00;;;;;;;13.91;72.72;99826.77;130125;1271;108910;-77
2022/09/09 02:28:06;;;;;;;10.70;7.10;;;;;;;13.94;72.76;99827.10;130069;1271;109163;-77
2022/09/09 02:31:12;;;;;;;10.30;7.20;;;;;;;13.96;72.84;99827.33;130118;1271;108969;-78
2022/09/09 02:34:22;;;;;;;12.10;7.30;;;;;;;13.94;72.82;99827.02;130165;1271;108721;-77
2022/09/09 02:37:35;;;;;;;12.20;7.50;;;;;;;13.93;72.77;99828.33;130174;1271;109205;-77
2022/09/09 02:40:40;;;;;;;13.70;7.10;;;;;;;13.91;73.03;99830.36;130106;1271;108818;-77
2022/09/09 02:43:46;;;;;;;12.10;6.30;;;;;;;13.91;72.97;99825.58;130088;1271;108902;-76
2022/09/09 02:47:08;;;;;;;10.20;6.60;;;;;;;13.93;73.05;99826.06;130183;1271;108874;-76
2022/09/09 02:50:18;;;;;;;10.40;6.60;;;;;;;13.96;73.17;99828.16;130185;1271;108971;-76
2022/09/09 02:53:31;;;;;;;10.70;7.10;;;;;;;13.97;73.25;99831.13;129886;1271;108776;-76
2022/09/09 02:56:41;;;;;;;10.10;7.20;;;;;;;13.96;73.45;99833.56;130016;1271;108873;-72
2022/09/09 02:59:47;;;;;;;9.70;6.70;;;;;;;13.94;73.47;99831.56;129870;1271;109721;-78
2022/09/09 03:02:54;;;;;;;10.20;6.00;;;;;;;13.94;73.44;99834.83;130064;1271;108713;-78
2022/09/09 03:05:59;;;;;;;11.20;7.00;;;;;;;13.95;73.64;99837.59;130009;1271;108795;-78
2022/09/09 03:09:07;;;;;;;10.80;6.20;;;;;;;13.95;73.76;99839.73;130133;1271;108778;-78
2022/09/09 03:12:13;;;;;;;11.90;7.80;;;;;;;13.96;73.62;99837.45;129966;1271;108694;-78
2022/09/09 03:15:21;;;;;;;10.70;7.60;;;;;;;13.97;73.91;99840.26;129944;1271;108905;-78
2022/09/09 03:18:27;;;;;;;12.90;7.60;;;;;;;13.97;73.94;99839.81;129928;1271;108977;-78
2022/09/09 03:21:33;;;;;;;8.90;5.90;;;;;;;13.96;73.87;99836.29;130157;1271;108980;-78
2022/09/09 03:24:39;;;;;;;12.20;7.10;;;;;;;13.93;74.17;99839.06;129942;1271;108745;-78
2022/09/09 03:27:44;;;;;;;10.00;6.20;;;;;;;13.92;74.39;99839.34;129903;1271;108151;-78
2022/09/09 03:30:51;;;;;;;9.80;7.10;;;;;;;13.96;74.30;99835.88;130003;1271;108945;-77
2022/09/09 03:34:00;;;;;;;8.90;6.70;;;;;;;13.99;74.40;99833.83;130073;1271;108683;-81
2022/09/09 03:37:07;;;;;;;10.00;6.80;;;;;;;14.03;74.35;99832.91;129991;1273;108737;-81
2022/09/09 03:40:15;;;;;;;9.40;6.80;;;;;;;14.03;74.44;99831.47;129919;1273;107664;-80
2022/09/09 03:43:23;;;;;;;11.60;5.90;;;;;;;14.01;74.54;99835.61;129987;1273;108725;-80
2022/09/09 03:46:31;;;;;;;9.80;6.10;;;;;;;13.99;74.54;99842.98;129938;1273;108836;-80
2022/09/09 03:49:37;;;;;;;7.30;5.90;;;;;;;13.98;74.84;99846.14;129982;1273;108740;-80
2022/09/09 03:52:44;;;;;;;9.30;6.50;;;;;;;14.02;74.80;99846.98;129965;1273;108882;-80
2022/09/09 03:55:59;;;;;;;9.70;7.60;;;;;;;14.06;74.83;99848.60;130042;1272;108937;-80
2022/09/09 03:59:05;;;;;;;12.50;8.20;;;;;;;14.06;74.83;99841.83;130013;1273;109014;-80
2022/09/09 04:02:11;;;;;;;14.70;8.90;;;;;;;14.05;75.07;99841.20;129938;1273;108683;-81
2022/09/09 04:05:17;;;;;;;9.60;6.80;;;;;;;14.03;75.07;99843.36;129989;1273;108865;-80
2022/09/09 04:08:25;;;;;;;10.50;6.90;;;;;;;14.02;75.21;99849.66;130057;1273;108980;-80
2022/09/09 04:11:31;;;;;;;11.80;6.80;;;;;;;14.03;75.43;99851.85;129842;1273;108648;-81
2022/09/09 04:14:37;;;;;;;12.80;7.90;;;;;;;14.04;75.40;99856.53;130052;1273;108709;-81
2022/09/09 04:17:44;;;;;;;10.80;7.10;;;;;;;14.02;75.51;99851.23;130030;1273;108702;-81
2022/09/09 04:20:51;;;;;;;10.70;7.10;;;;;;;14.05;75.63;99852.66;130067;1273;108777;-81
2022/09/09 04:23:59;;;;;;;10.60;7.70;;;;;;;14.06;75.70;99855.04;130252;1273;108926;-81
2022/09/09 04:27:05;;;;;;;10.30;6.60;;;;;;;14.05;75.87;99857.46;130117;1273;109002;-81
2022/09/09 04:30:13;;;;;;;9.30;6.40;;;;;;;14.04;75.80;99858.80;129988;1273;108901;-80
2022/09/09 04:33:20;;;;;;;11.10;7.10;;;;;;;14.05;75.89;99859.85;129832;1273;107828;-79
2022/09/09 04:36:27;;;;;;;12.20;7.00;;;;;;;14.09;75.76;99855.08;130040;1273;108935;-76
2022/09/09 04:39:36;;;;;;;10.70;7.50;;;;;;;14.12;75.91;99857.02;130027;1273;108891;-76
2022/09/09 04:42:43;;;;;;;11.20;7.80;;;;;;;14.15;76.14;99857.19;130085;1273;108871;-77
2022/09/09 04:45:52;;;;;;;10.90;7.20;;;;;;;14.16;76.20;99860.77;130075;1273;108217;-77
2022/09/09 04:48:59;;;;;;;10.60;6.40;;;;;;;14.16;76.30;99861.33;130021;1273;108835;-76
2022/09/09 04:52:07;;;;;;;11.10;7.40;;;;;;;14.17;76.35;99866.25;130034;1273;109008;-76
2022/09/09 04:55:14;;;;;;;11.50;7.40;;;;;;;14.20;76.38;99871.48;130068;1273;108860;-79
2022/09/09 04:58:23;;;;;;;10.50;7.70;;;;;;;14.22;76.54;99869.17;130037;1273;108690;-80
2022/09/09 05:01:29;;;;;;;11.40;7.60;;;;;;;14.24;76.44;99866.59;130013;1273;108670;-79
2022/09/09 05:04:39;;;;;;;12.30;7.50;;;;;;;14.25;76.52;99863.30;129953;1273;108699;-78
2022/09/09 05:07:47;;;;;;;11.30;7.80;;;;;;;14.27;76.65;99861.55;129956;1273;108707;-78
2022/09/09 05:10:52;;;;;;;14.10;8.40;;;;;;;14.28;76.59;99863.66;129978;1273;109466;-78
2022/09/09 05:13:59;;;;;;;10.40;6.80;;;;;;;14.27;76.83;99867.70;129970;1273;108876;-78
2022/09/09 05:17:04;;;;;;;11.20;7.80;;;;;;;14.27;76.92;99864.47;129947;1273;108896;-78
2022/09/09 05:20:11;;;;;;;11.90;8.50;;;;;;;14.33;76.99;99865.35;129814;1273;108818;-78
2022/09/09 05:23:17;;;;;;;13.80;8.90;;;;;;;14.38;76.72;99860.95;129985;1273;108958;-78
2022/09/09 05:26:24;;;;;;;14.00;8.60;;;;;;;14.44;76.81;99861.55;130006;1273;109001;-80
2022/09/09 05:29:33;;;;;;;13.70;8.30;;;;;;;14.48;76.97;99863.91;130372;1273;108701;-79
2022/09/09 05:32:39;;;;;;;12.40;7.50;;;;;;;14.52;77.33;99862.77;129920;1273;108801;-78
2022/09/09 05:35:44;;;;;;;16.50;9.40;;;;;;;14.59;77.28;99866.84;129956;1271;109050;-80
2022/09/09 05:38:50;;;;;;;16.70;8.90;;;;;;;14.69;77.32;99869.31;130037;1271;109443;-77
2022/09/09 05:41:56;;;;;;;14.10;8.50;;;;;;;14.78;77.29;99869.41;130015;1271;108841;-79
2022/09/09 05:45:02;;;;;;;15.10;9.40;;;;;;;14.83;77.33;99871.41;130004;1271;109088;-78
2022/09/09 05:48:08;;;;;;;16.70;10.50;;;;;;;14.87;77.42;99876.69;129847;1271;109019;-78
2022/09/09 05:51:17;;;;;;;16.20;9.20;;;;;;;14.89;77.40;99879.45;130146;1271;108753;-78
2022/09/09 05:54:23;;;;;;;13.50;8.50;;;;;;;14.92;77.51;99884.95;130084;1271;108729;-79
2022/09/09 05:57:30;;;;;;;14.40;8.60;;;;;;;14.99;77.53;99881.73;130091;1271;108820;-79
2022/09/09 06:00:37;;;;;;;15.20;9.20;;;;;;;15.04;77.54;99883.52;129989;1271;108936;-78
2022/09/09 06:03:44;;;;;;;16.70;9.40;;;;;;;15.11;77.54;99883.39;130281;1270;108725;-79
2022/09/09 06:06:50;;;;;;;15.20;9.80;;;;;;;15.18;77.46;99885.35;130042;1271;108799;-78
2022/09/09 06:09:58;;;;;;;16.50;10.70;;;;;;;15.23;77.49;99888.92;130060;1271;108719;-79
2022/09/09 06:13:04;;;;;;;15.80;9.90;;;;;;;15.22;77.78;99890.23;129954;1271;108832;-79
2022/09/09 06:16:11;;;;;;;16.20;9.10;;;;;;;15.23;77.39;99889.02;129934;1271;109110;-79
2022/09/09 06:19:20;;;;;;;14.70;9.80;;;;;;;15.27;77.51;99891.15;129903;1271;108747;-79
2022/09/09 06:22:26;;;;;;;18.20;10.40;;;;;;;15.36;77.53;99893.30;130088;1271;108824;-79
2022/09/09 06:25:34;;;;;;;16.70;9.90;;;;;;;15.40;77.73;99893.25;129930;1271;107034;-79
2022/09/09 06:28:42;;;;;;;16.20;10.30;;;;;;;15.40;77.57;99894.20;130134;1272;108928;-79
2022/09/09 06:31:48;;;;;;;16.90;10.90;;;;;;;15.44;77.83;99893.61;129950;1270;108762;-80
2022/09/09 06:34:58;;;;;;;19.60;10.10;;;;;;;15.50;77.78;99894.20;129834;1273;109085;-79
2022/09/09 06:38:04;;;;;;;18.70;10.80;;;;;;;15.62;77.72;99896.69;130060;1273;108726;-78
2022/09/09 06:41:12;;;;;;;16.50;10.10;;;;;;;15.73;77.82;99893.16;130043;1272;108827;-79
2022/09/09 06:44:18;;;;;;;15.50;10.70;;;;;;;15.84;77.86;99896.27;129832;1272;108083;-78
2022/09/09 06:47:24;;;;;;;17.10;10.50;;;;;;;15.96;77.70;99896.69;129977;1272;108898;-78
2022/09/09 06:50:30;;;;;;;16.50;11.00;;;;;;;16.03;77.62;99897.73;129680;1273;108684;-79
2022/09/09 06:53:37;;;;;;;20.40;12.00;;;;;;;16.07;77.73;99902.77;129985;1273;109215;-79
2022/09/09 06:56:45;;;;;;;19.50;10.80;;;;;;;16.11;77.96;99903.02;130122;1272;108721;-79
2022/09/09 06:59:56;;;;;;;20.10;10.30;;;;;;;16.21;77.78;99902.27;129770;1272;108801;-79
2022/09/09 07:03:02;;;;;;;22.40;12.10;;;;;;;16.34;77.89;99903.05;129962;1272;108701;-79
2022/09/09 07:06:12;;;;;;;23.10;13.10;;;;;;;16.47;77.89;99903.27;130070;1273;108727;-78
2022/09/09 07:09:18;;;;;;;24.70;13.40;;;;;;;16.57;77.66;99908.81;129952;1273;108844;-79
2022/09/09 07:12:25;;;;;;;21.50;13.20;;;;;;;16.57;77.77;99911.96;130071;1273;107721;-80
2022/09/09 07:15:35;;;;;;;22.10;12.80;;;;;;;16.56;77.94;99911.92;130160;1273;108673;-80
2022/09/09 07:18:41;;;;;;;22.00;12.30;;;;;;;16.58;78.06;99919.63;129902;1273;109004;-78
2022/09/09 07:21:47;;;;;;;23.80;12.70;;;;;;;16.61;78.14;99924.13;129944;1273;108813;-82
2022/09/09 07:24:54;;;;;;;21.60;12.90;;;;;;;16.67;78.11;99926.48;130058;1273;108982;-80
2022/09/09 07:28:00;;;;;;;24.40;12.50;;;;;;;16.74;78.25;99928.65;129883;1273;109090;-80
2022/09/09 07:31:06;;;;;;;22.10;13.60;;;;;;;16.81;78.03;99930.38;130033;1273;108747;-80
2022/09/09 07:34:13;;;;;;;22.50;12.40;;;;;;;16.86;78.03;99938.60;130073;1273;108754;-80
2022/09/09 07:37:19;;;;;;;23.40;13.70;;;;;;;16.86;78.04;99938.90;129957;1272;108808;-81
2022/09/09 07:40:26;;;;;;;23.70;12.60;;;;;;;16.92;78.04;99939.20;130061;1272;108964;-80
2022/09/09 07:43:33;;;;;;;23.00;13.80;;;;;;;17.00;78.23;99937.40;129975;1273;107697;-80
2022/09/09 07:46:40;;;;;;;23.10;14.00;;;;;;;17.12;78.20;99938.34;129834;1272;108873;-80
2022/09/09 07:49:47;;;;;;;27.60;15.00;;;;;;;17.31;78.07;99943.98;129866;1273;107976;-80
2022/09/09 07:52:53;;;;;;;24.10;14.30;;;;;;;17.43;78.07;99943.46;130219;1272;108787;-81
2022/09/09 07:56:05;;;;;;;26.90;14.40;;;;;;;17.52;78.07;99945.52;130159;1273;108718;-80
2022/09/09 07:59:11;;;;;;;25.40;13.30;;;;;;;17.59;77.96;99942.20;130041;1273;108877;-80
2022/09/09 08:02:18;;;;;;;26.80;14.90;;;;;;;17.64;77.95;99944.18;130235;1273;108974;-80
2022/09/09 08:05:24;;;;;;;23.70;13.70;;;;;;;17.71;78.09;99946.22;129906;1273;108960;-80
2022/09/09 08:08:30;;;;;;;23.50;13.70;;;;;;;17.78;77.99;99953.45;130107;1273;108742;-80
2022/09/09 08:11:36;;;;;;;24.70;14.20;;;;;;;17.91;77.97;99952.86;130061;1272;108631;-80
2022/09/09 08:14:42;;;;;;;25.40;14.70;;;;;;;18.06;77.88;99954.42;130069;1273;107683;-80
2022/09/09 08:17:48;;;;;;;25.30;15.00;;;;;;;18.18;77.71;99954.15;130117;1272;107460;-80
2022/09/09 08:20:54;;;;;;;24.20;14.60;;;;;;;18.28;77.87;99962.23;130211;1273;108620;-81
2022/09/09 08:24:02;;;;;;;24.00;13.50;;;;;;;18.37;78.08;99961.95;129994;1273;109249;-81
2022/09/09 08:27:09;;;;;;;24.90;13.70;;;;;;;18.50;78.01;99964.17;130086;1273;108619;-80
2022/09/09 08:30:16;;;;;;;25.60;15.10;;;;;;;18.60;77.92;99972.55;129992;1272;108738;-81
2022/09/09 08:33:21;;;;;;;25.10;15.00;;;;;;;18.70;77.83;99970.68;130041;1273;108844;-80
2022/09/09 08:36:29;;;;;;;23.70;15.10;;;;;;;18.75;77.53;99971.95;130018;1272;107900;-81
2022/09/09 08:39:36;;;;;;;21.40;13.90;;;;;;;18.75;77.63;99979.52;130136;1273;108892;-80
2022/09/09 08:42:46;;;;;;;21.50;14.00;;;;;;;18.74;77.48;99982.15;130096;1273;108980;-80
2022/09/09 08:46:01;;;;;;;23.10;14.80;;;;;;;18.75;77.49;99982.68;130013;1273;108794;-80
2022/09/09 08:49:21;;;;;;;22.40;15.10;;;;;;;18.72;77.39;99985.70;130040;1273;108668;-79
2022/09/09 08:52:32;;;;;;;21.80;14.50;;;;;;;18.64;77.98;99983.08;130026;1273;108741;-79
2022/09/09 08:55:46;;;;;;;22.50;13.80;;;;;;;18.67;77.90;99984.76;130013;1272;108739;-81
2022/09/09 08:58:56;;;;;;;23.00;13.20;;;;;;;18.76;77.86;99985.96;129947;1273;108731;-80
2022/09/09 09:02:22;;;;;;;21.10;14.90;;;;;;;18.86;77.73;99975.31;129928;1273;108652;-81
2022/09/09 09:05:34;;;;;;;21.00;14.50;;;;;;;18.91;77.45;99981.31;129982;1273;108721;-81
2022/09/09 09:08:49;;;;;;;21.20;14.70;;;;;;;18.99;77.50;99979.09;129848;1273;108744;-80
2022/09/09 09:12:01;;;;;;;22.20;15.20;;;;;;;19.09;77.26;99982.70;130068;1273;108719;-80
2022/09/09 09:15:17;;;;;;;22.00;14.90;;;;;;;19.05;77.14;99984.39;129981;1273;108773;-81
2022/09/09 09:18:23;;;;;;;21.50;13.40;;;;;;;19.06;77.41;99986.16;129767;1273;108866;-81
2022/09/09 09:21:37;;;;;;;21.10;15.00;;;;;;;19.15;77.45;99984.61;129885;1273;108816;-79
2022/09/09 09:24:51;;;;;;;22.00;15.20;;;;;;;19.28;77.53;99977.55;129846;1273;108976;-79
2022/09/09 09:28:01;;;;;;;22.50;14.90;;;;;;;19.40;77.15;99976.73;129838;1273;108882;-79
2022/09/09 09:31:10;;;;;;;20.90;14.80;;;;;;;19.52;76.97;99975.54;130122;1273;108933;-79
2022/09/09 09:34:17;;;;;;;18.90;14.80;;;;;;;19.64;76.78;99981.83;130048;1273;108773;-79
2022/09/09 09:37:30;;;;;;;19.80;14.10;;;;;;;19.80;76.32;99984.18;130063;1273;108787;-79
2022/09/09 09:40:36;;;;;;;22.50;15.20;;;;;;;19.85;75.53;99985.56;129896;1272;108931;-79
2022/09/09 09:43:43;;;;;;;22.30;14.70;;;;;;;19.83;75.76;99991.91;130019;1273;108840;-79
2022/09/09 09:46:52;;;;;;;17.40;12.40;;;;;;;19.94;76.27;99996.66;129972;1273;108702;-79
2022/09/09 09:49:59;;;;;;;18.40;12.90;;;;;;;20.08;75.25;100002.34;129956;1273;108818;-80
2022/09/09 09:53:07;;;;;;;16.70;12.30;;;;;;;20.10;75.40;100007.08;129835;1272;108794;-79
2022/09/09 09:56:16;;;;;;;15.60;12.00;;;;;;;20.09;74.78;100008.62;130020;1273;108732;-79
2022/09/09 09:59:36;;;;;;;18.40;13.40;;;;;;;19.94;74.71;100013.02;130078;1273;109029;-80
2022/09/09 10:02:44;;;;;;;19.90;14.00;;;;;;;19.71;74.40;100011.81;129848;1272;109358;-79
2022/09/09 10:05:56;;;;;;;21.00;14.30;;;;;;;19.62;74.92;100014.05;130053;1271;108854;-79
2022/09/09 10:09:02;;;;;;;16.50;11.90;;;;;;;19.59;75.36;100012.67;130116;1272;108670;-80
2022/09/09 10:12:17;;;;;;;19.00;12.40;;;;;;;19.59;75.48;100014.53;130086;1273;109119;-79
2022/09/09 10:15:38;;;;;;;20.10;13.40;;;;;;;19.52;75.34;100014.75;130105;1272;109017;-79
2022/09/09 10:18:56;;;;;;;19.10;13.20;;;;;;;19.41;75.37;100022.19;130045;1273;109635;-79
2022/09/09 10:22:21;;;;;;;17.70;13.90;;;;;;;19.39;75.56;100023.08;130058;1272;108550;-79
2022/09/09 10:25:46;;;;;;;18.40;13.40;;;;;;;19.31;75.49;100026.48;130159;1273;108693;-79
2022/09/09 10:29:21;;;;;;;19.90;13.60;;;;;;;19.34;75.60;100023.93;130164;1273;108947;-79
2022/09/09 10:32:38;;;;;;;16.70;12.00;;;;;;;19.48;75.83;100020.81;130076;1273;108767;-79
2022/09/09 10:35:52;;;;;;;17.80;12.30;;;;;;;19.53;75.19;100026.33;129990;1272;108534;-79
2022/09/09 10:39:04;;;;;;;15.60;12.10;;;;;;;19.50;75.03;100033.46;129945;1273;108777;-79
2022/09/09 10:42:14;;;;;;;15.70;11.00;;;;;;;19.49;74.87;100040.09;130016;1272;108797;-79
2022/09/09 10:45:24;;;;;;;17.50;12.60;;;;;;;19.44;75.23;100047.77;130146;1273;108744;-79
2022/09/09 10:48:41;;;;;;;17.70;12.80;;;;;;;19.31;75.32;100050.29;129963;1273;108880;-79
2022/09/09 10:51:58;;;;;;;16.40;11.60;;;;;;;19.15;75.43;100051.45;130034;1272;109197;-79
2022/09/09 10:55:11;;;;;;;15.90;12.10;;;;;;;19.20;75.60;100050.05;129809;1273;108683;-80
2022/09/09 10:58:24;;;;;;;14.70;11.40;;;;;;;19.30;75.41;100049.97;129803;1273;108640;-81
2022/09/09 11:01:35;;;;;;;15.60;11.70;;;;;;;19.52;75.66;100045.56;129840;1273;109006;-79
2022/09/09 11:04:46;;;;;;;16.10;12.10;;;;;;;19.75;75.17;100043.41;129751;1273;108835;-79
2022/09/09 11:07:58;;;;;;;14.70;12.20;;;;;;;19.84;74.92;100049.06;129893;1273;108795;-79
2022/09/09 11:11:11;;;;;;;20.30;14.40;;;;;;;19.84;74.61;100052.38;129862;1273;108869;-79
2022/09/09 11:14:26;;;;;;;17.40;13.40;;;;;;;19.68;74.47;100059.92;129762;1273;108999;-79
2022/09/09 11:17:37;;;;;;;14.80;10.90;;;;;;;19.58;74.99;100064.73;129794;1273;109084;-80
2022/09/09 11:20:43;;;;;;;14.60;10.80;;;;;;;19.56;75.21;100065.70;129944;1273;108828;-81
2022/09/09 11:23:55;;;;;;;13.90;10.40;;;;;;;19.60;75.01;100067.01;129955;1273;107703;-80
2022/09/09 11:27:07;;;;;;;13.50;10.10;;;;;;;19.84;75.11;100067.48;129807;1273;108720;-80
2022/09/09 11:30:19;;;;;;;;;;;;;;;20.18;74.83;100068.67;129944;1273;107621;-81
2022/09/09 11:33:49;;;;;;;16.50;11.60;;;;;;;20.24;74.10;100069.46;129928;1273;108262;-80
2022/09/09 11:37:15;;;;;;;14.70;10.70;;;;;;;20.20;73.58;100070.29;130058;1272;108583;-80
2022/09/09 11:40:26;;;;;;;14.10;10.60;;;;;;;20.21;74.20;100072.96;130117;1273;107094;-80
2022/09/09 11:43:34;;;;;;;12.50;10.60;;;;;;;20.26;74.17;100069.00;130031;1272;108771;-81
2022/09/09 11:46:42;;;;;;;13.10;10.20;;;;;;;20.25;73.98;100069.95;130228;1272;109066;-80
2022/09/09 11:49:48;;;;;;;13.00;10.20;;;;;;;20.19;74.03;100074.55;130209;1273;108916;-81
2022/09/09 11:53:20;;;;;;;13.00;9.70;;;;;;;20.22;73.84;100074.11;130088;1273;108708;-80
2022/09/09 11:56:32;;;;;;;13.80;10.90;;;;;;;20.29;73.36;100074.34;130087;1273;108679;-80
2022/09/09 11:59:38;;;;;;;12.30;9.70;;;;;;;20.45;73.53;100071.31;130125;1272;108729;-81
2022/09/09 12:02:50;;;;;;;12.20;9.90;;;;;;;20.89;73.61;100064.45;130083;1273;109169;-81
2022/09/09 12:05:56;;;;;;;12.40;9.50;;;;;;;21.19;73.03;100059.75;130164;1273;107660;-81
2022/09/09 12:09:16;;;;;;;11.20;9.20;;;;;;;21.31;72.72;100057.89;130266;1273;108743;-81
2022/09/09 12:12:28;;;;;;;12.10;9.20;;;;;;;21.34;72.77;100053.92;130062;1273;108640;-80
2022/09/09 12:15:34;;;;;;;12.10;9.60;;;;;;;21.37;72.51;100052.67;130181;1273;108740;-81
2022/09/09 12:18:42;;;;;;;11.20;9.70;;;;;;;21.39;71.97;100047.69;130250;1273;108859;-81
2022/09/09 12:21:55;;;;;;;10.40;8.40;;;;;;;21.35;72.17;100050.53;128859;1273;1659483;-79
2022/09/09 12:25:09;;;;;;;10.70;9.10;;;;;;;21.21;71.42;100053.02;130109;1273;108975;-80
2022/09/09 12:28:20;;;;;;;11.40;8.70;;;;;;;20.81;71.21;100051.31;130049;1273;108754;-81
2022/09/09 12:31:34;;;;;;;9.30;8.30;;;;;;;20.51;71.91;100048.14;130045;1273;109805;-80
2022/09/09 12:34:45;;;;;;;8.70;7.40;;;;;;;20.37;72.34;100048.08;130014;1273;107364;-80
2022/09/09 12:37:56;;;;;;;9.90;7.90;;;;;;;20.36;72.19;100049.35;130131;1273;107714;-79
2022/09/09 12:41:02;;;;;;;9.30;7.80;;;;;;;20.34;72.19;100046.61;130119;1273;108792;-78
2022/09/09 12:44:10;;;;;;;9.60;7.80;;;;;;;20.26;72.30;100046.56;129980;1273;108703;-80
2022/09/09 12:47:16;;;;;;;8.50;7.30;;;;;;;20.35;72.35;100046.98;129907;1273;108894;-78
2022/09/09 12:50:25;;;;;;;9.60;7.80;;;;;;;20.55;72.06;100040.04;129867;1273;108816;-79
2022/09/09 12:53:36;;;;;;;9.10;8.00;;;;;;;20.70;71.53;100039.00;129826;1273;108818;-81
2022/09/09 12:56:46;;;;;;;9.10;7.70;;;;;;;20.80;71.54;100036.10;129833;1273;108591;-80
2022/09/09 12:59:53;;;;;;;10.00;7.60;;;;;;;20.95;71.47;100045.23;130011;1273;109373;-80
2022/09/09 13:03:00;;;;;;;9.50;7.30;;;;;;;20.98;71.02;100049.86;129863;1273;108753;-80
2022/09/09 13:06:22;;;;;;;10.90;7.80;;;;;;;20.98;71.09;100046.77;130019;1273;108746;-80
2022/09/09 13:09:28;;;;;;;9.70;7.60;;;;;;;20.93;71.06;100041.04;129802;1273;108735;-80
2022/09/09 13:12:33;;;;;;;10.10;7.60;;;;;;;20.85;71.24;100042.33;129855;1273;108787;-80
2022/09/09 13:15:38;;;;;;;9.00;8.00;;;;;;;20.80;71.14;100046.77;129993;1273;108752;-80
2022/09/09 13:18:44;;;;;;;9.20;7.40;;;;;;;20.81;71.07;100043.01;129830;1273;108565;-80
2022/09/09 13:21:50;;;;;;;9.80;7.50;;;;;;;20.75;70.66;100048.70;129906;1274;108726;-80
2022/09/09 13:25:06;;;;;;;8.00;6.90;;;;;;;20.74;70.69;100048.02;129715;1273;108746;-78
2022/09/09 13:28:24;;;;;;;8.40;7.10;;;;;;;20.84;70.81;100037.48;129948;1273;108681;-78
2022/09/09 13:31:34;;;;;;;7.60;6.80;;;;;;;21.00;70.37;100038.53;129928;1273;108703;-78
2022/09/09 13:34:39;;;;;;;7.80;6.80;;;;;;;21.11;70.27;100035.48;129999;1273;108630;-78
2022/09/09 13:37:45;;;;;;;9.20;6.80;;;;;;;21.28;70.10;100036.54;129957;1273;108816;-79
2022/09/09 13:41:01;;;;;;;9.30;7.10;;;;;;;21.41;70.13;100038.11;129813;1273;109019;-80
2022/09/09 13:44:07;;;;;;;8.50;6.80;;;;;;;21.49;69.90;100030.20;129988;1273;108850;-78
2022/09/09 13:47:23;;;;;;;9.10;7.20;;;;;;;21.50;69.69;100024.19;129938;1273;108744;-78
2022/09/09 13:50:30;;;;;;;8.00;6.70;;;;;;;21.45;68.96;100025.83;129878;1273;108835;-79
2022/09/09 13:53:35;;;;;;;7.80;6.40;;;;;;;21.28;69.37;100035.30;129842;1273;109069;-80
2022/09/09 13:56:42;;;;;;;7.90;7.10;;;;;;;21.27;69.53;100032.02;129791;1272;108245;-79
2022/09/09 13:59:49;;;;;;;7.50;6.20;;;;;;;21.27;69.33;100034.57;129880;1273;108647;-79
2022/09/09 14:02:55;;;;;;;7.20;6.00;;;;;;;21.18;69.36;100032.14;129872;1273;108949;-79
2022/09/09 14:06:01;;;;;;;8.30;6.00;;;;;;;21.10;69.30;100027.09;129894;1273;108876;-78
2022/09/09 14:09:07;;;;;;;7.70;6.90;;;;;;;21.03;69.21;100030.48;129902;1273;108894;-79
2022/09/09 14:12:13;;;;;;;7.50;6.70;;;;;;;20.91;68.68;100036.52;129856;1273;108916;-78
2022/09/09 14:15:19;;;;;;;7.30;6.00;;;;;;;20.76;69.25;100041.27;129942;1273;108791;-78
2022/09/09 14:18:25;;;;;;;6.00;5.40;;;;;;;20.66;69.42;100044.96;129826;1273;108955;-78